createdAt,value
2022-12-28T00:01:52.317Z,10.47
2022-12-28T00:04:19.822Z,10.49
2022-12-28T00:06:47.774Z,10.49
2022-12-28T00:09:15.243Z,10.50
2022-12-28T00:11:42.599Z,10.47
2022-12-28T00:14:10.242Z,10.45
2022-12-28T00:16:40.394Z,10.46
2022-12-28T00:19:13.135Z,10.49
2022-12-28T00:21:41.459Z,10.53
2022-12-28T00:24:14.920Z,10.46
2022-12-28T00:26:42.488Z,10.52
2022-12-28T00:29:10.120Z,10.55
2022-12-28T00:31:38.257Z,10.36
2022-12-28T00:34:06.022Z,10.40
2022-12-28T00:37:09.948Z,10.45
2022-12-28T00:39:22.276Z,10.42
2022-12-28T00:41:49.871Z,10.50
2022-12-28T00:44:17.339Z,10.48
2022-12-28T00:46:44.626Z,10.42
2022-12-28T00:49:12.101Z,10.54
2022-12-28T00:51:39.374Z,10.51
2022-12-28T00:54:07.438Z,10.64
2022-12-28T00:56:34.815Z,10.60
2022-12-28T00:59:02.160Z,10.60
2022-12-28T01:01:30.171Z,10.56
2022-12-28T01:03:59.185Z,10.66
2022-12-28T01:06:28.668Z,10.69
2022-12-28T01:08:58.131Z,10.59
2022-12-28T01:11:30.641Z,10.60
2022-12-28T01:14:01.620Z,10.64
2022-12-28T01:16:32.951Z,10.51
2022-12-28T01:19:02.309Z,10.58
2022-12-28T01:21:32.320Z,10.54
2022-12-28T01:24:03.119Z,10.59
2022-12-28T01:26:32.626Z,10.58
2022-12-28T01:29:00.199Z,10.63
2022-12-28T01:31:28.105Z,10.70
2022-12-28T01:33:55.721Z,10.67
2022-12-28T01:36:25.560Z,10.65
2022-12-28T01:38:57.002Z,10.69
2022-12-28T01:41:27.192Z,10.66
2022-12-28T01:43:55.288Z,10.63
2022-12-28T01:46:50.145Z,10.71
2022-12-28T01:49:29.311Z,10.71
2022-12-28T01:52:17.345Z,10.67
2022-12-28T01:54:48.379Z,10.76
2022-12-28T01:57:17.908Z,10.62
2022-12-28T01:59:54.895Z,10.65
2022-12-28T02:02:23.571Z,10.65
2022-12-28T02:04:53.548Z,10.62
2022-12-28T02:07:36.281Z,10.54
2022-12-28T02:10:44.378Z,10.67
2022-12-28T02:12:54.429Z,10.61
2022-12-28T02:15:23.382Z,10.68
2022-12-28T02:17:51.468Z,10.68
2022-12-28T02:20:19.531Z,10.59
2022-12-28T02:23:31.148Z,10.68
2022-12-28T02:26:32.199Z,10.65
2022-12-28T02:29:24.072Z,10.63
2022-12-28T02:32:02.328Z,10.65
2022-12-28T02:34:48.706Z,10.68
2022-12-28T02:37:18.523Z,10.62
2022-12-28T02:40:18.123Z,10.59
2022-12-28T02:42:46.681Z,10.66
2022-12-28T02:45:52.943Z,10.63
2022-12-28T02:48:39.572Z,10.76
2022-12-28T02:51:07.125Z,10.78
2022-12-28T02:53:52.793Z,10.71
2022-12-28T02:56:31.848Z,10.73
2022-12-28T02:59:26.315Z,10.71
2022-12-28T03:02:16.947Z,10.71
2022-12-28T03:04:57.957Z,10.61
2022-12-28T03:07:53.438Z,10.69
2022-12-28T03:10:29.285Z,10.71
2022-12-28T03:13:45.989Z,10.76
2022-12-28T03:16:28.465Z,10.77
2022-12-28T03:19:22.244Z,10.82
2022-12-28T03:22:12.738Z,10.78
2022-12-28T03:25:01.774Z,10.69
2022-12-28T03:27:49.583Z,10.66
2022-12-28T03:30:40.762Z,10.76
2022-12-28T03:33:11.766Z,10.69
2022-12-28T03:35:58.920Z,10.73
2022-12-28T03:38:32.043Z,10.72
2022-12-28T03:41:09.118Z,10.69
2022-12-28T03:43:54.544Z,10.72
2022-12-28T03:46:36.706Z,10.76
2022-12-28T03:49:04.883Z,10.83
2022-12-28T03:51:33.683Z,10.77
2022-12-28T03:54:07.597Z,10.79
2022-12-28T03:56:35.035Z,10.72
2022-12-28T03:59:04.025Z,10.71
2022-12-28T04:01:39.255Z,10.76
2022-12-28T04:04:07.070Z,10.87
2022-12-28T04:06:34.760Z,10.89
2022-12-28T04:09:03.917Z,10.82
2022-12-28T04:11:33.483Z,10.77
2022-12-28T04:14:10.375Z,10.78
2022-12-28T04:16:40.639Z,10.70
2022-12-28T04:19:13.812Z,10.70
2022-12-28T04:21:41.472Z,10.80
2022-12-28T04:24:08.898Z,10.85
2022-12-28T04:26:37.195Z,10.73
2022-12-28T04:29:04.510Z,10.77
2022-12-28T04:31:31.867Z,10.82
2022-12-28T04:34:06.605Z,10.81
2022-12-28T04:36:39.723Z,10.79
2022-12-28T04:39:11.995Z,10.85
2022-12-28T04:41:40.313Z,10.83
2022-12-28T04:44:07.815Z,10.73
2022-12-28T04:46:35.409Z,10.73
2022-12-28T04:49:02.987Z,10.69
2022-12-28T04:51:30.756Z,10.79
2022-12-28T04:53:58.814Z,10.79
2022-12-28T04:56:27.116Z,10.74
2022-12-28T04:58:59.537Z,10.72
2022-12-28T05:01:27.906Z,10.75
2022-12-28T05:03:58.703Z,10.80
2022-12-28T05:06:28.269Z,10.81
2022-12-28T05:08:57.519Z,10.86
2022-12-28T05:11:28.312Z,10.94
2022-12-28T05:13:57.115Z,10.86
2022-12-28T05:16:26.631Z,10.91
2022-12-28T05:18:56.782Z,10.73
2022-12-28T05:21:28.772Z,10.72
2022-12-28T05:23:57.519Z,10.73
2022-12-28T05:26:29.163Z,10.76
2022-12-28T05:28:58.739Z,10.72
2022-12-28T05:31:26.912Z,10.58
2022-12-28T05:33:54.871Z,10.65
2022-12-28T05:36:25.061Z,10.58
2022-12-28T05:38:53.021Z,10.61
2022-12-28T05:41:23.637Z,10.56
2022-12-28T05:43:51.728Z,10.58
2022-12-28T05:46:22.247Z,10.66
2022-12-28T05:48:49.904Z,10.66
2022-12-28T05:51:20.055Z,10.73
2022-12-28T05:53:48.229Z,10.78
2022-12-28T05:56:18.515Z,10.73
2022-12-28T05:58:52.579Z,10.74
2022-12-28T06:01:22.358Z,10.78
2022-12-28T06:03:58.729Z,10.75
2022-12-28T06:06:27.342Z,10.79
2022-12-28T06:08:55.093Z,10.74
2022-12-28T06:11:24.630Z,10.73
2022-12-28T06:13:52.545Z,10.84
2022-12-28T06:16:26.202Z,10.78
2022-12-28T06:18:54.238Z,10.76
2022-12-28T06:21:24.817Z,10.77
2022-12-28T06:23:53.835Z,10.84
2022-12-28T06:26:22.260Z,10.84
2022-12-28T06:28:50.534Z,10.83
2022-12-28T06:31:23.562Z,10.88
2022-12-28T06:33:55.078Z,10.79
2022-12-28T06:36:25.499Z,10.81
2022-12-28T06:38:54.510Z,10.89
2022-12-28T06:41:22.839Z,10.84
2022-12-28T06:43:50.724Z,10.84
2022-12-28T06:46:19.879Z,10.86
2022-12-28T06:48:47.656Z,10.81
2022-12-28T06:51:23.613Z,10.87
2022-12-28T06:53:52.831Z,10.87
2022-12-28T06:56:23.880Z,10.84
2022-12-28T06:58:58.432Z,10.89
2022-12-28T07:01:33.291Z,10.88
2022-12-28T07:04:02.533Z,10.86
2022-12-28T07:06:30.667Z,10.86
2022-12-28T07:09:00.209Z,10.79
2022-12-28T07:11:29.199Z,10.90
2022-12-28T07:13:57.613Z,10.88
2022-12-28T07:16:26.962Z,10.83
2022-12-28T07:18:55.125Z,10.79
2022-12-28T07:21:28.327Z,10.85
2022-12-28T07:23:56.044Z,10.83
2022-12-28T07:26:26.261Z,10.78
2022-12-28T07:28:55.910Z,10.68
2022-12-28T07:31:38.363Z,10.69
2022-12-28T07:34:12.221Z,10.69
2022-12-28T07:36:39.695Z,10.68
2022-12-28T07:39:07.213Z,10.70
2022-12-28T07:41:36.231Z,10.68
2022-12-28T07:44:06.698Z,10.73
2022-12-28T07:46:36.391Z,10.69
2022-12-28T07:49:04.610Z,10.76
2022-12-28T07:51:35.143Z,10.84
2022-12-28T07:54:03.798Z,10.70
2022-12-28T07:59:01.457Z,10.67
2022-12-28T08:01:32.000Z,10.71
2022-12-28T08:04:02.614Z,10.66
2022-12-28T08:06:33.219Z,10.55
2022-12-28T08:09:01.421Z,10.64
2022-12-28T08:11:31.162Z,10.58
2022-12-28T08:13:59.899Z,10.60
2022-12-28T08:16:29.622Z,10.60
2022-12-28T08:19:02.440Z,10.61
2022-12-28T08:21:35.166Z,10.61
2022-12-28T08:24:03.575Z,10.70
2022-12-28T08:26:36.666Z,10.76
2022-12-28T08:29:07.315Z,10.71
2022-12-28T08:31:38.318Z,10.73
2022-12-28T08:34:07.847Z,10.82
2022-12-28T08:36:35.509Z,10.78
2022-12-28T08:39:03.563Z,10.80
2022-12-28T08:41:31.507Z,10.87
2022-12-28T08:43:59.548Z,10.88
2022-12-28T08:46:33.044Z,10.89
2022-12-28T08:49:01.445Z,10.95
2022-12-28T08:51:36.483Z,10.90
2022-12-28T08:54:04.393Z,10.96
2022-12-28T08:56:34.667Z,10.97
2022-12-28T08:59:03.643Z,11.01
2022-12-28T09:01:40.851Z,11.11
2022-12-28T09:04:14.874Z,11.15
2022-12-28T09:06:42.964Z,11.11
2022-12-28T09:09:13.019Z,11.15
2022-12-28T09:11:41.188Z,11.17
2022-12-28T09:14:15.701Z,11.22
2022-12-28T09:16:48.581Z,11.18
2022-12-28T09:19:16.133Z,11.30
2022-12-28T09:21:45.391Z,11.31
2022-12-28T09:24:13.509Z,11.24
2022-12-28T09:26:41.013Z,11.31
2022-12-28T09:29:11.549Z,11.40
2022-12-28T09:31:40.653Z,11.42
2022-12-28T09:36:59.852Z,11.47
2022-12-28T09:39:27.783Z,11.51
2022-12-28T09:42:02.466Z,11.58
2022-12-28T09:44:30.007Z,11.61
2022-12-28T09:46:57.669Z,11.55
2022-12-28T09:49:33.641Z,11.62
2022-12-28T09:52:09.139Z,11.49
2022-12-28T09:54:36.698Z,11.57
2022-12-28T09:57:04.714Z,11.60
2022-12-28T09:59:36.046Z,11.64
2022-12-28T10:02:04.971Z,11.59
2022-12-28T10:04:32.584Z,11.56
2022-12-28T10:07:02.224Z,11.54
2022-12-28T10:09:33.420Z,11.51
2022-12-28T10:12:12.877Z,11.42
2022-12-28T10:14:40.701Z,11.50
2022-12-28T10:17:12.016Z,11.52
2022-12-28T10:19:40.036Z,11.50
2022-12-28T10:22:11.601Z,11.53
2022-12-28T10:24:40.687Z,11.48
2022-12-28T10:27:21.087Z,11.43
2022-12-28T10:29:51.463Z,11.51
2022-12-28T10:32:19.538Z,11.45
2022-12-28T10:34:59.005Z,11.46
2022-12-28T10:37:30.898Z,11.48
2022-12-28T10:40:01.805Z,11.51
2022-12-28T10:42:40.379Z,11.50
2022-12-28T10:45:18.136Z,11.42
2022-12-28T10:47:54.366Z,11.42
2022-12-28T10:50:43.334Z,11.34
2022-12-28T10:53:18.613Z,11.40
2022-12-28T10:55:46.599Z,11.41
2022-12-28T10:58:31.741Z,11.44
2022-12-28T11:01:15.918Z,11.47
2022-12-28T11:03:57.374Z,11.27
2022-12-28T11:06:32.721Z,11.33
2022-12-28T11:09:14.237Z,11.38
2022-12-28T11:11:43.453Z,11.47
2022-12-28T11:14:26.115Z,11.37
2022-12-28T11:16:53.842Z,11.43
2022-12-28T11:19:22.888Z,11.40
2022-12-28T11:21:52.177Z,11.41
2022-12-28T11:24:25.763Z,11.41
2022-12-28T11:26:53.471Z,11.47
2022-12-28T11:29:20.959Z,11.50
2022-12-28T11:32:05.385Z,11.47
2022-12-28T11:34:33.006Z,11.44
2022-12-28T11:37:01.141Z,11.39
2022-12-28T11:39:28.529Z,11.51
2022-12-28T11:44:45.592Z,11.51
2022-12-28T11:47:16.172Z,11.41
2022-12-28T11:49:45.418Z,11.45
2022-12-28T11:52:24.159Z,11.50
2022-12-28T11:54:55.848Z,11.55
2022-12-28T11:57:54.328Z,11.50
2022-12-28T12:00:25.027Z,11.54
2022-12-28T12:02:53.837Z,11.61
2022-12-28T12:05:36.732Z,11.61
2022-12-28T12:08:16.600Z,11.63
2022-12-28T12:10:46.367Z,11.68
2022-12-28T12:13:48.997Z,11.72
2022-12-28T12:16:38.479Z,11.76
2022-12-28T12:19:08.106Z,11.73
2022-12-28T12:21:41.719Z,11.75
2022-12-28T12:24:18.543Z,11.88
2022-12-28T12:26:53.715Z,11.81
2022-12-28T12:29:24.854Z,11.79
2022-12-28T12:32:03.923Z,11.79
2022-12-28T12:35:08.102Z,11.81
2022-12-28T12:37:54.578Z,11.85
2022-12-28T12:40:41.975Z,11.80
2022-12-28T12:43:41.430Z,11.78
2022-12-28T12:46:30.238Z,11.81
2022-12-28T12:49:28.470Z,11.77
2022-12-28T12:52:49.900Z,11.74
2022-12-28T12:55:44.733Z,11.78
2022-12-28T12:58:28.031Z,11.68
2022-12-28T13:00:58.947Z,11.77
2022-12-28T13:03:43.681Z,11.76
2022-12-28T13:06:15.758Z,11.64
2022-12-28T13:08:47.527Z,11.65
2022-12-28T13:11:17.145Z,11.58
2022-12-28T13:13:48.015Z,11.66
2022-12-28T13:16:21.967Z,11.72
2022-12-28T13:19:01.330Z,11.71
2022-12-28T13:21:39.593Z,11.63
2022-12-28T13:24:28.110Z,11.55
2022-12-28T13:26:58.938Z,11.66
2022-12-28T13:29:31.117Z,11.73
2022-12-28T13:31:58.645Z,11.76
2022-12-28T13:34:35.280Z,11.78
2022-12-28T13:37:14.063Z,11.70
2022-12-28T13:39:42.572Z,11.69
2022-12-28T13:42:32.527Z,11.83
2022-12-28T13:45:07.979Z,11.82
2022-12-28T13:47:41.033Z,11.80
2022-12-28T13:50:16.477Z,11.80
2022-12-28T13:52:59.185Z,11.82
2022-12-28T13:55:37.730Z,11.84
2022-12-28T13:58:12.473Z,11.83
2022-12-28T14:00:45.553Z,11.69
2022-12-28T14:03:13.996Z,11.82
2022-12-28T14:05:48.043Z,11.75
2022-12-28T14:08:16.726Z,11.77
2022-12-28T14:10:47.102Z,11.76
2022-12-28T14:13:15.811Z,11.76
2022-12-28T14:15:43.981Z,11.86
2022-12-28T14:18:15.804Z,11.84
2022-12-28T14:20:51.938Z,11.79
2022-12-28T14:23:32.504Z,11.83
2022-12-28T14:26:03.910Z,11.85
2022-12-28T14:28:34.564Z,11.80
2022-12-28T14:31:04.788Z,11.83
2022-12-28T14:33:36.149Z,11.93
2022-12-28T14:36:07.419Z,11.96
2022-12-28T14:38:40.254Z,11.87
2022-12-28T14:41:17.143Z,11.89
2022-12-28T14:43:53.405Z,11.91
2022-12-28T14:46:33.036Z,11.91
2022-12-28T14:49:21.342Z,11.88
2022-12-28T14:51:48.974Z,11.93
2022-12-28T14:54:18.017Z,11.96
2022-12-28T14:56:51.812Z,11.91
2022-12-28T14:59:46.936Z,11.96
2022-12-28T15:02:33.940Z,11.98
2022-12-28T15:05:03.278Z,11.98
2022-12-28T15:07:33.598Z,11.92
2022-12-28T15:10:01.211Z,11.92
2022-12-28T15:12:28.551Z,12.00
2022-12-28T15:14:56.051Z,11.96
2022-12-28T15:17:26.943Z,11.96
2022-12-28T15:19:59.052Z,11.93
2022-12-28T15:22:26.598Z,11.95
2022-12-28T15:24:54.199Z,11.92
2022-12-28T15:27:21.683Z,11.96
2022-12-28T15:30:05.909Z,11.91
2022-12-28T15:32:35.301Z,11.95
2022-12-28T15:35:03.424Z,11.96
2022-12-28T15:37:30.913Z,11.97
2022-12-28T15:39:58.242Z,12.00
2022-12-28T15:42:25.595Z,11.96
2022-12-28T15:44:53.948Z,11.86
2022-12-28T15:47:21.671Z,11.84
2022-12-28T15:49:49.107Z,11.84
2022-12-28T15:52:16.587Z,11.90
2022-12-28T15:54:47.361Z,11.91
2022-12-28T15:57:15.952Z,11.92
2022-12-28T15:59:43.552Z,11.98
2022-12-28T16:02:11.977Z,11.96
2022-12-28T16:04:39.643Z,11.92
2022-12-28T16:07:07.257Z,11.94
2022-12-28T16:09:34.722Z,12.00
2022-12-28T16:12:02.711Z,12.00
2022-12-28T16:14:30.109Z,11.94
2022-12-28T16:16:57.807Z,11.96
2022-12-28T16:19:25.399Z,11.94
2022-12-28T16:21:53.031Z,11.94
2022-12-28T16:24:20.867Z,11.97
2022-12-28T16:26:48.611Z,12.02
2022-12-28T16:29:16.168Z,11.94
2022-12-28T16:31:43.872Z,11.97
2022-12-28T16:34:14.487Z,11.94
2022-12-28T16:36:42.921Z,11.98
2022-12-28T16:39:14.711Z,11.98
2022-12-28T16:41:42.686Z,12.08
2022-12-28T16:44:15.721Z,12.10
2022-12-28T16:46:43.671Z,12.14
2022-12-28T16:49:11.440Z,12.10
2022-12-28T16:51:41.258Z,12.10
2022-12-28T16:54:08.846Z,12.15
2022-12-28T16:56:36.408Z,12.14
2022-12-28T16:59:04.006Z,12.08
2022-12-28T17:01:31.589Z,12.07
2022-12-28T17:04:04.039Z,12.12
2022-12-28T17:06:32.079Z,12.13
2022-12-28T17:09:02.158Z,12.20
2022-12-28T17:11:29.934Z,12.17
2022-12-28T17:14:05.395Z,12.20
2022-12-28T17:16:33.393Z,12.15
2022-12-28T17:19:01.731Z,12.10
2022-12-28T17:21:30.735Z,12.14
2022-12-28T17:23:58.843Z,12.17
2022-12-28T17:26:26.859Z,12.16
2022-12-28T17:28:54.596Z,12.09
2022-12-28T17:31:23.474Z,12.15
2022-12-28T17:33:54.268Z,12.18
2022-12-28T17:36:22.471Z,12.24
2022-12-28T17:38:50.984Z,12.23
2022-12-28T17:41:23.818Z,12.24
2022-12-28T17:44:01.679Z,12.26
2022-12-28T17:46:30.638Z,12.27
2022-12-28T17:48:59.711Z,12.30
2022-12-28T17:51:29.296Z,12.27
2022-12-28T17:53:57.749Z,12.21
2022-12-28T17:56:25.619Z,12.20
2022-12-28T17:58:58.347Z,12.21
2022-12-28T18:01:27.982Z,12.22
2022-12-28T18:03:56.753Z,12.24
2022-12-28T18:06:24.762Z,12.21
2022-12-28T18:08:52.229Z,12.19
2022-12-28T18:11:19.979Z,12.21
2022-12-28T18:13:48.044Z,12.23
2022-12-28T18:16:17.951Z,12.24
2022-12-28T18:18:45.765Z,12.24
2022-12-28T18:21:21.053Z,12.19
2022-12-28T18:23:51.957Z,12.20
2022-12-28T18:26:26.461Z,12.18
2022-12-28T18:28:57.320Z,12.19
2022-12-28T18:31:25.433Z,12.18
2022-12-28T18:33:53.353Z,12.26
2022-12-28T18:36:20.840Z,12.27
2022-12-28T18:38:48.974Z,12.22
2022-12-28T18:41:20.909Z,12.25
2022-12-28T18:43:49.666Z,12.22
2022-12-28T18:46:17.914Z,12.24
2022-12-28T18:48:45.434Z,12.23
2022-12-28T18:51:14.281Z,12.28
2022-12-28T18:53:42.313Z,12.31
2022-12-28T18:56:14.566Z,12.28
2022-12-28T18:58:42.600Z,12.23
2022-12-28T19:01:32.380Z,12.27
2022-12-28T19:04:01.059Z,12.35
2022-12-28T19:06:30.371Z,12.33
2022-12-28T19:09:00.003Z,12.33
2022-12-28T19:11:28.297Z,12.34
2022-12-28T19:13:56.630Z,12.35
2022-12-28T19:16:30.573Z,12.34
2022-12-28T19:19:00.048Z,12.34
2022-12-28T19:21:29.150Z,12.42
2022-12-28T19:24:03.278Z,12.46
2022-12-28T19:26:32.809Z,12.42
2022-12-28T19:29:00.388Z,12.41
2022-12-28T19:31:28.271Z,12.40
2022-12-28T19:33:56.025Z,12.31
2022-12-28T19:36:24.135Z,12.37
2022-12-28T19:38:56.189Z,12.33
2022-12-28T19:41:24.523Z,12.31
2022-12-28T19:43:54.007Z,12.21
2022-12-28T19:46:24.823Z,12.16
2022-12-28T19:48:55.685Z,12.17
2022-12-28T19:51:30.218Z,12.15
2022-12-28T19:54:02.676Z,12.20
2022-12-28T19:56:30.224Z,12.16
2022-12-28T19:59:05.110Z,12.14
2022-12-28T20:01:34.383Z,12.12
2022-12-28T20:04:12.768Z,12.17
2022-12-28T20:06:45.419Z,12.15
2022-12-28T20:09:14.886Z,12.20
2022-12-28T20:11:44.830Z,12.18
2022-12-28T20:14:23.208Z,12.20
2022-12-28T20:16:52.451Z,12.16
2022-12-28T20:19:19.730Z,12.11
2022-12-28T20:21:49.529Z,12.03
2022-12-28T20:24:17.948Z,11.98
2022-12-28T20:26:48.378Z,12.00
2022-12-28T20:29:16.525Z,12.01
2022-12-28T20:31:44.753Z,11.90
2022-12-28T20:34:12.482Z,11.82
2022-12-28T20:36:40.151Z,11.84
2022-12-28T20:39:07.627Z,11.78
2022-12-28T20:41:53.655Z,11.79
2022-12-28T20:44:30.371Z,11.76
2022-12-28T20:46:59.302Z,11.70
2022-12-28T20:49:27.589Z,11.68
2022-12-28T20:51:55.557Z,11.52
2022-12-28T20:54:23.850Z,11.59
2022-12-28T20:56:55.375Z,11.53
2022-12-28T20:59:25.213Z,11.51
2022-12-28T21:01:53.708Z,11.51
2022-12-28T21:04:25.269Z,11.49
2022-12-28T21:06:54.173Z,11.50
2022-12-28T21:09:24.767Z,11.58
2022-12-28T21:11:52.305Z,11.57
2022-12-28T21:14:19.918Z,11.49
2022-12-28T21:16:47.450Z,11.55
2022-12-28T21:19:14.909Z,11.58
2022-12-28T21:21:42.245Z,11.60
2022-12-28T21:24:09.593Z,11.60
2022-12-28T21:26:37.350Z,11.61
2022-12-28T21:29:04.843Z,11.55
2022-12-28T21:31:32.472Z,11.58
2022-12-28T21:33:59.901Z,11.52
2022-12-28T21:36:27.720Z,11.56
2022-12-28T21:38:55.258Z,11.56
2022-12-28T21:41:41.569Z,11.51
2022-12-28T21:44:12.483Z,11.52
2022-12-28T21:46:40.311Z,11.52
2022-12-28T21:49:08.527Z,11.47
2022-12-28T21:51:38.464Z,11.50
2022-12-28T21:54:17.264Z,11.52
2022-12-28T21:56:47.080Z,11.50
2022-12-28T21:59:14.603Z,11.53
2022-12-28T22:02:01.840Z,11.55
2022-12-28T22:04:48.111Z,11.59
2022-12-28T22:07:19.589Z,11.59
2022-12-28T22:10:05.883Z,11.54
2022-12-28T22:12:34.693Z,11.56
2022-12-28T22:15:36.115Z,11.62
2022-12-28T22:18:36.658Z,11.59
2022-12-28T22:21:04.529Z,11.65
2022-12-28T22:23:34.838Z,11.68
2022-12-28T22:26:03.018Z,11.64
2022-12-28T22:28:30.911Z,11.64
2022-12-28T22:30:58.524Z,11.63
2022-12-28T22:33:25.993Z,11.64
2022-12-28T22:35:54.651Z,11.59
2022-12-28T22:38:22.044Z,11.58
2022-12-28T22:40:59.813Z,11.58
2022-12-28T22:43:27.167Z,11.57
2022-12-28T22:46:14.632Z,11.54
2022-12-28T22:48:42.204Z,11.53
2022-12-28T22:51:12.445Z,11.36
2022-12-28T22:53:40.381Z,11.46
2022-12-28T22:56:11.770Z,11.41
2022-12-28T22:58:39.285Z,11.49
2022-12-28T23:01:11.727Z,11.45
2022-12-28T23:03:41.285Z,11.43
2022-12-28T23:06:09.962Z,11.41
2022-12-28T23:08:37.685Z,11.44
2022-12-28T23:11:30.391Z,11.44
2022-12-28T23:14:18.242Z,11.51
2022-12-28T23:16:45.923Z,11.50
2022-12-28T23:19:32.321Z,11.52
2022-12-28T23:22:19.109Z,11.53
2022-12-28T23:25:05.319Z,11.54
2022-12-28T23:27:39.121Z,11.52
2022-12-28T23:30:09.886Z,11.53
2022-12-28T23:32:37.374Z,11.50
2022-12-28T23:35:05.178Z,11.40
2022-12-28T23:37:32.770Z,11.38
2022-12-28T23:40:00.387Z,11.39
2022-12-28T23:42:28.260Z,11.42
2022-12-28T23:44:55.776Z,11.33
2022-12-28T23:47:23.204Z,11.27
2022-12-28T23:49:50.890Z,11.26
2022-12-28T23:52:23.773Z,11.31
2022-12-28T23:54:53.235Z,11.31
2022-12-28T23:57:21.168Z,11.28
2022-12-28T23:59:48.609Z,11.29
